Other Surface Observations
Issued by NWS Missoula, MT

Home | Current Version | Previous Version | Text Only | Print | Product List | Glossary On
Versions: 1 2 3 4 5 6 7 8 9 10 11 12 13 14 15 16 17 18 19 20 21 22 23 24 25 26 27 28 29 30 31 32 33 34 35 36 37 38 39 40 41 42 43 44 45 46 47 48 49 50
000
SXUS55 KMSO 011223
OSOMSO
MONTANA AWOS SUMMARY
NATIONAL WEATHER SERVICE MISSOULA MT
523 AM MST SUN FEB 1 2015

Montana AWOS Reports

LAUREL      |K6S8 011215Z AUTO 00000KT 25SM M15/M19 A3027 RMK AO1 T11491188
ROUNDUP     |KRPX 011215Z AUTO 00000KT 40SM M14/M18 A3023 RMK AO1 T11381182
MALTA       |KM75 011155Z AUTO 00000KT 40SM M26/M31 A3040 RMK AO1 T12601310




USA.gov is the U.S. government's official web portal to all federal, state and local government web resources and services.